sensor_id;sensor_type;location;lat;lon;timestamp;pressure;altitude;pressure_sealevel;temperature;humidity
43745;BME280;29359;53.048;8.732;2022-12-29T00:01:50;100167.84;;;9.18;98.85
43745;BME280;29359;53.048;8.732;2022-12-29T00:03:53;100167.84;;;9.18;99.00
43745;BME280;29359;53.048;8.732;2022-12-29T00:05:56;100157.25;;;9.19;99.71
43745;BME280;29359;53.048;8.732;2022-12-29T00:07:58;100161.56;;;9.22;99.04
43745;BME280;29359;53.048;8.732;2022-12-29T00:10:00;100151.84;;;9.24;99.69
43745;BME280;29359;53.048;8.732;2022-12-29T00:12:03;100146.63;;;9.22;98.77
43745;BME280;29359;53.048;8.732;2022-12-29T00:14:05;100144.03;;;9.21;98.84
43745;BME280;29359;53.048;8.732;2022-12-29T00:16:27;100141.34;;;9.22;98.96
43745;BME280;29359;53.048;8.732;2022-12-29T00:18:29;100145.69;;;9.23;99.13
43745;BME280;29359;53.048;8.732;2022-12-29T00:20:34;100132.38;;;9.28;99.83
43745;BME280;29359;53.048;8.732;2022-12-29T00:22:54;100145.38;;;9.32;99.63
43745;BME280;29359;53.048;8.732;2022-12-29T00:25:14;100145.22;;;9.37;99.88
43745;BME280;29359;53.048;8.732;2022-12-29T00:27:35;100139.03;;;9.38;99.01
43745;BME280;29359;53.048;8.732;2022-12-29T00:29:55;100132.81;;;9.40;99.08
43745;BME280;29359;53.048;8.732;2022-12-29T00:32:15;100130.97;;;9.42;99.09
43745;BME280;29359;53.048;8.732;2022-12-29T00:34:35;100122.16;;;9.43;99.20
43745;BME280;29359;53.048;8.732;2022-12-29T00:36:55;100112.38;;;9.47;99.25
43745;BME280;29359;53.048;8.732;2022-12-29T00:39:03;100115.88;;;9.48;98.73
43745;BME280;29359;53.048;8.732;2022-12-29T00:41:25;100117.66;;;9.47;99.68
43745;BME280;29359;53.048;8.732;2022-12-29T00:43:45;100115.94;;;9.46;99.05
43745;BME280;29359;53.048;8.732;2022-12-29T00:46:05;100119.38;;;9.48;99.51
43745;BME280;29359;53.048;8.732;2022-12-29T00:48:07;100119.25;;;9.51;99.91
43745;BME280;29359;53.048;8.732;2022-12-29T00:50:08;100115.81;;;9.49;100.00
43745;BME280;29359;53.048;8.732;2022-12-29T00:52:12;100111.47;;;9.48;100.00
43745;BME280;29359;53.048;8.732;2022-12-29T00:54:14;100108.81;;;9.48;99.67
43745;BME280;29359;53.048;8.732;2022-12-29T00:56:18;100110.50;;;9.51;100.00
43745;BME280;29359;53.048;8.732;2022-12-29T00:58:20;100105.28;;;9.49;100.00
43745;BME280;29359;53.048;8.732;2022-12-29T01:00:21;100100.97;;;9.47;100.00
43745;BME280;29359;53.048;8.732;2022-12-29T01:02:22;100110.59;;;9.48;100.00
43745;BME280;29359;53.048;8.732;2022-12-29T01:04:25;100107.09;;;9.47;100.00
43745;BME280;29359;53.048;8.732;2022-12-29T01:06:27;100100.94;;;9.48;100.00
43745;BME280;29359;53.048;8.732;2022-12-29T01:08:29;100101.72;;;9.50;100.00
43745;BME280;29359;53.048;8.732;2022-12-29T01:10:31;100097.06;;;9.58;100.00
43745;BME280;29359;53.048;8.732;2022-12-29T01:12:33;100088.19;;;9.61;100.00
43745;BME280;29359;53.048;8.732;2022-12-29T01:14:46;100092.50;;;9.63;99.75
43745;BME280;29359;53.048;8.732;2022-12-29T01:16:47;100081.84;;;9.66;99.82
43745;BME280;29359;53.048;8.732;2022-12-29T01:18:49;100084.38;;;9.69;99.40
43745;BME280;29359;53.048;8.732;2022-12-29T01:20:50;100080.88;;;9.69;99.45
43745;BME280;29359;53.048;8.732;2022-12-29T01:22:52;100087.75;;;9.73;99.32
43745;BME280;29359;53.048;8.732;2022-12-29T01:24:53;100099.16;;;9.73;98.45
43745;BME280;29359;53.048;8.732;2022-12-29T01:26:55;100085.06;;;9.74;98.73
43745;BME280;29359;53.048;8.732;2022-12-29T01:28:56;100074.44;;;9.76;98.13
43745;BME280;29359;53.048;8.732;2022-12-29T01:31:00;100075.13;;;9.81;98.41
43745;BME280;29359;53.048;8.732;2022-12-29T01:33:02;100076.81;;;9.84;98.06
43745;BME280;29359;53.048;8.732;2022-12-29T01:35:04;100068.72;;;9.88;97.92
43745;BME280;29359;53.048;8.732;2022-12-29T01:37:05;100056.41;;;9.89;97.05
43745;BME280;29359;53.048;8.732;2022-12-29T01:39:07;100060.88;;;9.87;97.13
43745;BME280;29359;53.048;8.732;2022-12-29T01:41:11;100067.81;;;9.89;97.49
43745;BME280;29359;53.048;8.732;2022-12-29T01:43:13;100061.66;;;9.89;97.08
43745;BME280;29359;53.048;8.732;2022-12-29T01:45:17;100069.63;;;9.87;97.20
43745;BME280;29359;53.048;8.732;2022-12-29T01:50:04;100064.41;;;9.86;97.56
43745;BME280;29359;53.048;8.732;2022-12-29T01:52:07;100064.31;;;9.89;97.61
43745;BME280;29359;53.048;8.732;2022-12-29T01:54:33;100046.72;;;9.89;97.52
43745;BME280;29359;53.048;8.732;2022-12-29T01:56:37;100050.25;;;9.88;97.42
43745;BME280;29359;53.048;8.732;2022-12-29T01:58:41;100047.50;;;9.91;97.18
43745;BME280;29359;53.048;8.732;2022-12-29T02:00:46;100035.97;;;9.94;96.83
43745;BME280;29359;53.048;8.732;2022-12-29T02:02:51;100035.84;;;9.98;96.99
43745;BME280;29359;53.048;8.732;2022-12-29T02:04:53;100042.03;;;9.97;96.44
43745;BME280;29359;53.048;8.732;2022-12-29T02:07:09;100034.97;;;9.98;96.32
43745;BME280;29359;53.048;8.732;2022-12-29T02:09:12;100044.59;;;9.99;96.71
43745;BME280;29359;53.048;8.732;2022-12-29T02:11:15;100031.44;;;9.99;96.82
43745;BME280;29359;53.048;8.732;2022-12-29T02:13:17;100034.00;;;10.00;96.21
43745;BME280;29359;53.048;8.732;2022-12-29T02:22:14;100024.88;;;10.09;96.08
43745;BME280;29359;53.048;8.732;2022-12-29T02:26:44;100011.63;;;10.11;95.47
43745;BME280;29359;53.048;8.732;2022-12-29T02:29:14;100002.00;;;10.10;95.42
43745;BME280;29359;53.048;8.732;2022-12-29T02:31:39;100009.97;;;10.08;95.71
43745;BME280;29359;53.048;8.732;2022-12-29T02:34:43;100003.03;;;10.05;95.34
43745;BME280;29359;53.048;8.732;2022-12-29T02:36:33;100009.03;;;10.09;95.24
43745;BME280;29359;53.048;8.732;2022-12-29T02:41:14;99997.63;;;10.08;94.72
43745;BME280;29359;53.048;8.732;2022-12-29T02:43:22;100001.00;;;10.12;94.86
43745;BME280;29359;53.048;8.732;2022-12-29T02:49:59;99994.88;;;10.12;94.50
43745;BME280;29359;53.048;8.732;2022-12-29T02:52:27;99985.06;;;10.15;94.84
43745;BME280;29359;53.048;8.732;2022-12-29T02:54:31;99994.81;;;10.13;94.91
43745;BME280;29359;53.048;8.732;2022-12-29T02:56:42;99983.34;;;10.14;94.87
43745;BME280;29359;53.048;8.732;2022-12-29T02:58:43;99991.06;;;10.19;94.82
43745;BME280;29359;53.048;8.732;2022-12-29T03:01:06;99984.78;;;10.23;94.35
43745;BME280;29359;53.048;8.732;2022-12-29T03:03:32;99985.72;;;10.22;94.63
43745;BME280;29359;53.048;8.732;2022-12-29T03:05:55;99980.31;;;10.25;94.53
43745;BME280;29359;53.048;8.732;2022-12-29T03:10:37;99973.25;;;10.25;94.28
43745;BME280;29359;53.048;8.732;2022-12-29T03:13:07;99973.19;;;10.27;94.88
43745;BME280;29359;53.048;8.732;2022-12-29T03:16:24;99972.34;;;10.26;93.76
43745;BME280;29359;53.048;8.732;2022-12-29T03:18:10;99958.94;;;10.31;94.02
43745;BME280;29359;53.048;8.732;2022-12-29T03:20:24;99965.88;;;10.33;94.18
43745;BME280;29359;53.048;8.732;2022-12-29T03:22:29;99961.53;;;10.32;93.96
43745;BME280;29359;53.048;8.732;2022-12-29T03:24:36;99943.91;;;10.33;94.23
43745;BME280;29359;53.048;8.732;2022-12-29T03:26:41;99943.97;;;10.31;94.31
43745;BME280;29359;53.048;8.732;2022-12-29T03:28:50;99950.97;;;10.32;94.06
43745;BME280;29359;53.048;8.732;2022-12-29T03:30:54;99948.41;;;10.31;93.82
43745;BME280;29359;53.048;8.732;2022-12-29T03:33:01;99941.41;;;10.30;94.15
43745;BME280;29359;53.048;8.732;2022-12-29T03:35:04;99938.75;;;10.30;94.02
43745;BME280;29359;53.048;8.732;2022-12-29T03:37:20;99939.63;;;10.30;94.68
43745;BME280;29359;53.048;8.732;2022-12-29T03:39:24;99930.72;;;10.33;94.95
43745;BME280;29359;53.048;8.732;2022-12-29T03:41:29;99934.28;;;10.32;94.76
43745;BME280;29359;53.048;8.732;2022-12-29T03:43:31;99929.00;;;10.32;95.42
43745;BME280;29359;53.048;8.732;2022-12-29T03:45:33;99935.13;;;10.32;95.51
43745;BME280;29359;53.048;8.732;2022-12-29T03:47:34;99934.34;;;10.30;95.62
43745;BME280;29359;53.048;8.732;2022-12-29T03:49:36;99929.94;;;10.31;96.31
43745;BME280;29359;53.048;8.732;2022-12-29T03:51:37;99923.84;;;10.29;96.41
43745;BME280;29359;53.048;8.732;2022-12-29T03:53:39;99937.13;;;10.27;96.91
43745;BME280;29359;53.048;8.732;2022-12-29T03:55:40;99932.69;;;10.28;97.20
43745;BME280;29359;53.048;8.732;2022-12-29T03:57:42;99931.78;;;10.29;97.54
43745;BME280;29359;53.048;8.732;2022-12-29T03:59:43;99928.22;;;10.30;98.32
43745;BME280;29359;53.048;8.732;2022-12-29T04:01:45;99918.66;;;10.27;98.64
43745;BME280;29359;53.048;8.732;2022-12-29T04:03:47;99918.03;;;10.21;99.60
43745;BME280;29359;53.048;8.732;2022-12-29T04:05:49;99922.56;;;10.17;99.62
43745;BME280;29359;53.048;8.732;2022-12-29T04:07:51;99915.69;;;10.13;100.00
43745;BME280;29359;53.048;8.732;2022-12-29T04:09:52;99922.81;;;10.11;100.00
43745;BME280;29359;53.048;8.732;2022-12-29T04:11:54;99908.97;;;10.06;100.00
43745;BME280;29359;53.048;8.732;2022-12-29T04:13:55;99919.56;;;10.04;100.00
43745;BME280;29359;53.048;8.732;2022-12-29T04:15:57;99909.94;;;10.03;100.00
43745;BME280;29359;53.048;8.732;2022-12-29T04:17:58;99909.09;;;10.03;100.00
43745;BME280;29359;53.048;8.732;2022-12-29T04:20:00;99903.81;;;10.03;100.00
43745;BME280;29359;53.048;8.732;2022-12-29T04:22:20;99895.03;;;10.02;100.00
43745;BME280;29359;53.048;8.732;2022-12-29T04:24:21;99896.81;;;10.02;100.00
43745;BME280;29359;53.048;8.732;2022-12-29T04:26:23;99897.63;;;10.04;100.00
43745;BME280;29359;53.048;8.732;2022-12-29T04:28:24;99908.16;;;10.04;100.00
43745;BME280;29359;53.048;8.732;2022-12-29T04:30:26;99902.81;;;10.05;100.00
43745;BME280;29359;53.048;8.732;2022-12-29T04:32:27;99912.44;;;10.06;100.00
43745;BME280;29359;53.048;8.732;2022-12-29T04:34:29;99901.03;;;10.06;100.00
43745;BME280;29359;53.048;8.732;2022-12-29T04:36:30;99903.63;;;10.07;100.00
43745;BME280;29359;53.048;8.732;2022-12-29T04:38:32;99901.72;;;10.11;100.00
43745;BME280;29359;53.048;8.732;2022-12-29T04:40:33;99897.34;;;10.10;100.00
43745;BME280;29359;53.048;8.732;2022-12-29T04:42:35;99897.28;;;10.12;100.00
43745;BME280;29359;53.048;8.732;2022-12-29T04:44:37;99908.63;;;10.14;100.00
43745;BME280;29359;53.048;8.732;2022-12-29T04:46:45;99907.72;;;10.15;100.00
43745;BME280;29359;53.048;8.732;2022-12-29T04:48:47;99903.38;;;10.14;100.00
43745;BME280;29359;53.048;8.732;2022-12-29T04:50:49;99911.09;;;10.18;100.00
43745;BME280;29359;53.048;8.732;2022-12-29T04:52:50;99916.28;;;10.20;100.00
43745;BME280;29359;53.048;8.732;2022-12-29T04:54:52;99902.16;;;10.22;100.00
43745;BME280;29359;53.048;8.732;2022-12-29T04:56:53;99903.75;;;10.26;100.00
43745;BME280;29359;53.048;8.732;2022-12-29T04:58:55;99895.75;;;10.28;99.34
43745;BME280;29359;53.048;8.732;2022-12-29T05:00:56;99894.91;;;10.27;98.96
43745;BME280;29359;53.048;8.732;2022-12-29T05:02:58;99901.03;;;10.28;98.67
43745;BME280;29359;53.048;8.732;2022-12-29T05:05:00;99915.88;;;10.30;98.36
43745;BME280;29359;53.048;8.732;2022-12-29T05:07:01;99920.22;;;10.31;98.36
43745;BME280;29359;53.048;8.732;2022-12-29T05:09:03;99905.31;;;10.30;98.24
43745;BME280;29359;53.048;8.732;2022-12-29T05:11:04;99909.75;;;10.30;98.37
43745;BME280;29359;53.048;8.732;2022-12-29T05:13:06;99913.38;;;10.27;98.95
43745;BME280;29359;53.048;8.732;2022-12-29T05:15:10;99909.16;;;10.23;99.36
43745;BME280;29359;53.048;8.732;2022-12-29T05:17:11;99917.13;;;10.22;100.00
43745;BME280;29359;53.048;8.732;2022-12-29T05:19:13;99911.91;;;10.20;99.61
43745;BME280;29359;53.048;8.732;2022-12-29T05:21:14;99918.19;;;10.16;99.69
43745;BME280;29359;53.048;8.732;2022-12-29T05:23:16;99920.19;;;10.11;100.00
43745;BME280;29359;53.048;8.732;2022-12-29T05:25:19;99910.81;;;10.04;100.00
43745;BME280;29359;53.048;8.732;2022-12-29T05:27:20;99922.47;;;9.98;100.00
43745;BME280;29359;53.048;8.732;2022-12-29T05:29:22;99922.59;;;9.94;100.00
43745;BME280;29359;53.048;8.732;2022-12-29T05:31:23;99916.66;;;9.89;100.00
43745;BME280;29359;53.048;8.732;2022-12-29T05:33:25;99917.72;;;9.85;100.00
43745;BME280;29359;53.048;8.732;2022-12-29T05:35:26;99918.81;;;9.79;100.00
43745;BME280;29359;53.048;8.732;2022-12-29T05:37:28;99925.88;;;9.79;100.00
43745;BME280;29359;53.048;8.732;2022-12-29T05:39:29;99932.91;;;9.78;100.00
43745;BME280;29359;53.048;8.732;2022-12-29T05:41:31;99930.28;;;9.78;100.00
43745;BME280;29359;53.048;8.732;2022-12-29T05:43:33;99935.59;;;9.76;100.00
43745;BME280;29359;53.048;8.732;2022-12-29T05:45:36;99929.41;;;9.77;100.00
43745;BME280;29359;53.048;8.732;2022-12-29T05:47:37;99931.06;;;9.80;100.00
43745;BME280;29359;53.048;8.732;2022-12-29T05:49:39;99917.91;;;9.80;100.00
43745;BME280;29359;53.048;8.732;2022-12-29T05:51:40;99915.25;;;9.80;100.00
43745;BME280;29359;53.048;8.732;2022-12-29T05:53:42;99915.31;;;9.79;100.00
43745;BME280;29359;53.048;8.732;2022-12-29T05:55:45;99912.69;;;9.79;100.00
43745;BME280;29359;53.048;8.732;2022-12-29T05:57:49;99912.56;;;9.82;100.00
43745;BME280;29359;53.048;8.732;2022-12-29T05:59:50;99911.44;;;9.87;100.00
43745;BME280;29359;53.048;8.732;2022-12-29T06:01:52;99914.88;;;9.89;100.00
43745;BME280;29359;53.048;8.732;2022-12-29T06:03:54;99915.75;;;9.90;100.00
43745;BME280;29359;53.048;8.732;2022-12-29T06:05:55;99911.31;;;9.90;100.00
43745;BME280;29359;53.048;8.732;2022-12-29T06:07:57;99900.78;;;9.90;100.00
43745;BME280;29359;53.048;8.732;2022-12-29T06:09:58;99906.91;;;9.91;100.00
43745;BME280;29359;53.048;8.732;2022-12-29T06:12:00;99892.88;;;9.90;100.00
43745;BME280;29359;53.048;8.732;2022-12-29T06:14:01;99886.75;;;9.90;100.00
43745;BME280;29359;53.048;8.732;2022-12-29T06:16:06;99897.28;;;9.90;100.00
43745;BME280;29359;53.048;8.732;2022-12-29T06:18:08;99887.59;;;9.90;100.00
43745;BME280;29359;53.048;8.732;2022-12-29T06:20:19;99896.38;;;9.91;100.00
43745;BME280;29359;53.048;8.732;2022-12-29T06:22:24;99897.22;;;9.91;100.00
43745;BME280;29359;53.048;8.732;2022-12-29T06:24:28;99891.16;;;9.89;100.00
43745;BME280;29359;53.048;8.732;2022-12-29T06:26:29;99889.44;;;9.88;100.00
43745;BME280;29359;53.048;8.732;2022-12-29T06:28:31;99892.03;;;9.90;100.00
43745;BME280;29359;53.048;8.732;2022-12-29T06:30:33;99888.34;;;9.94;100.00
43745;BME280;29359;53.048;8.732;2022-12-29T06:32:35;99889.13;;;9.96;100.00
43745;BME280;29359;53.048;8.732;2022-12-29T06:34:36;99900.53;;;9.96;100.00
43745;BME280;29359;53.048;8.732;2022-12-29T06:36:38;99900.66;;;9.93;100.00
43745;BME280;29359;53.048;8.732;2022-12-29T06:38:40;99897.16;;;9.93;100.00
43745;BME280;29359;53.048;8.732;2022-12-29T06:40:42;99893.53;;;9.95;100.00
43745;BME280;29359;53.048;8.732;2022-12-29T06:42:44;99889.25;;;9.93;100.00
43745;BME280;29359;53.048;8.732;2022-12-29T06:44:45;99895.38;;;9.93;100.00
43745;BME280;29359;53.048;8.732;2022-12-29T06:46:47;99903.34;;;9.92;100.00
43745;BME280;29359;53.048;8.732;2022-12-29T06:48:48;99928.81;;;9.93;100.00
43745;BME280;29359;53.048;8.732;2022-12-29T06:50:50;99935.78;;;9.94;100.00
43745;BME280;29359;53.048;8.732;2022-12-29T06:52:51;99942.84;;;9.93;100.00
43745;BME280;29359;53.048;8.732;2022-12-29T06:54:53;99981.53;;;9.93;100.00
43745;BME280;29359;53.048;8.732;2022-12-29T06:56:55;99943.88;;;9.89;100.00
43745;BME280;29359;53.048;8.732;2022-12-29T06:58:56;99943.22;;;9.84;100.00
43745;BME280;29359;53.048;8.732;2022-12-29T07:00:58;99944.25;;;9.80;100.00
43745;BME280;29359;53.048;8.732;2022-12-29T07:02:59;99947.00;;;9.77;100.00
43745;BME280;29359;53.048;8.732;2022-12-29T07:05:01;99934.81;;;9.74;100.00
43745;BME280;29359;53.048;8.732;2022-12-29T07:07:03;99940.16;;;9.73;100.00
43745;BME280;29359;53.048;8.732;2022-12-29T07:09:04;99941.00;;;9.73;100.00
43745;BME280;29359;53.048;8.732;2022-12-29T07:11:06;99931.44;;;9.71;100.00
43745;BME280;29359;53.048;8.732;2022-12-29T07:13:07;99936.72;;;9.71;100.00
43745;BME280;29359;53.048;8.732;2022-12-29T07:15:09;99939.53;;;9.66;100.00
43745;BME280;29359;53.048;8.732;2022-12-29T07:17:10;99937.94;;;9.62;100.00
43745;BME280;29359;53.048;8.732;2022-12-29T07:19:12;99936.44;;;9.55;100.00
43745;BME280;29359;53.048;8.732;2022-12-29T07:21:14;99944.44;;;9.52;100.00
43745;BME280;29359;53.048;8.732;2022-12-29T07:23:16;99947.19;;;9.49;100.00
43745;BME280;29359;53.048;8.732;2022-12-29T07:25:17;99939.34;;;9.48;100.00
43745;BME280;29359;53.048;8.732;2022-12-29T07:27:19;99946.28;;;9.50;100.00
43745;BME280;29359;53.048;8.732;2022-12-29T07:29:20;99950.91;;;9.43;100.00
43745;BME280;29359;53.048;8.732;2022-12-29T07:31:23;99956.25;;;9.42;100.00
43745;BME280;29359;53.048;8.732;2022-12-29T07:33:25;99965.97;;;9.40;100.00
43745;BME280;29359;53.048;8.732;2022-12-29T07:35:27;99964.31;;;9.37;100.00
43745;BME280;29359;53.048;8.732;2022-12-29T07:37:28;99958.19;;;9.37;100.00
43745;BME280;29359;53.048;8.732;2022-12-29T07:39:30;99968.72;;;9.37;100.00
43745;BME280;29359;53.048;8.732;2022-12-29T07:41:31;99982.81;;;9.36;100.00
43745;BME280;29359;53.048;8.732;2022-12-29T07:43:33;99982.81;;;9.36;100.00
43745;BME280;29359;53.048;8.732;2022-12-29T07:45:35;99983.72;;;9.35;100.00
43745;BME280;29359;53.048;8.732;2022-12-29T07:47:36;99970.56;;;9.35;100.00
43745;BME280;29359;53.048;8.732;2022-12-29T07:49:38;99983.78;;;9.33;100.00
43745;BME280;29359;53.048;8.732;2022-12-29T07:51:39;99990.72;;;9.36;100.00
43745;BME280;29359;53.048;8.732;2022-12-29T07:53:41;99992.50;;;9.35;100.00
43745;BME280;29359;53.048;8.732;2022-12-29T07:55:42;99981.09;;;9.35;100.00
43745;BME280;29359;53.048;8.732;2022-12-29T07:57:44;99991.63;;;9.35;100.00
43745;BME280;29359;53.048;8.732;2022-12-29T07:59:45;99995.19;;;9.34;100.00
43745;BME280;29359;53.048;8.732;2022-12-29T08:01:47;100004.69;;;9.38;100.00
43745;BME280;29359;53.048;8.732;2022-12-29T08:03:49;99998.63;;;9.36;100.00
43745;BME280;29359;53.048;8.732;2022-12-29T08:05:57;100006.47;;;9.37;100.00
43745;BME280;29359;53.048;8.732;2022-12-29T08:07:59;100020.50;;;9.38;99.20
43745;BME280;29359;53.048;8.732;2022-12-29T08:10:00;100002.00;;;9.39;99.09
43745;BME280;29359;53.048;8.732;2022-12-29T08:12:02;100007.22;;;9.41;98.55
43745;BME280;29359;53.048;8.732;2022-12-29T08:14:04;100009.00;;;9.40;98.14
43745;BME280;29359;53.048;8.732;2022-12-29T08:16:06;100013.47;;;9.38;98.00
43745;BME280;29359;53.048;8.732;2022-12-29T08:18:08;100007.34;;;9.38;96.65
43745;BME280;29359;53.048;8.732;2022-12-29T08:20:10;100010.03;;;9.36;97.10
43745;BME280;29359;53.048;8.732;2022-12-29T08:22:13;100005.63;;;9.37;96.85
43745;BME280;29359;53.048;8.732;2022-12-29T08:24:14;100019.69;;;9.36;95.52
43745;BME280;29359;53.048;8.732;2022-12-29T08:26:16;100022.44;;;9.33;96.16
43745;BME280;29359;53.048;8.732;2022-12-29T08:28:17;100028.63;;;9.32;95.67
43745;BME280;29359;53.048;8.732;2022-12-29T08:30:19;100034.81;;;9.31;95.60
43745;BME280;29359;53.048;8.732;2022-12-29T08:32:20;100032.97;;;9.33;94.97
43745;BME280;29359;53.048;8.732;2022-12-29T08:34:22;100035.63;;;9.33;94.95
43745;BME280;29359;53.048;8.732;2022-12-29T08:36:24;100045.28;;;9.32;94.47
43745;BME280;29359;53.048;8.732;2022-12-29T08:38:27;100045.25;;;9.34;94.93
43745;BME280;29359;53.048;8.732;2022-12-29T08:40:28;100050.50;;;9.34;93.88
43745;BME280;29359;53.048;8.732;2022-12-29T08:42:30;100047.00;;;9.33;94.10
43745;BME280;29359;53.048;8.732;2022-12-29T08:44:32;100049.53;;;9.36;94.19
43745;BME280;29359;53.048;8.732;2022-12-29T08:46:34;100052.91;;;9.40;94.14
43745;BME280;29359;53.048;8.732;2022-12-29T08:48:35;100062.53;;;9.41;93.49
43745;BME280;29359;53.048;8.732;2022-12-29T08:50:37;100048.41;;;9.43;93.71
43745;BME280;29359;53.048;8.732;2022-12-29T08:52:38;100055.38;;;9.44;93.48
43745;BME280;29359;53.048;8.732;2022-12-29T08:54:39;100061.28;;;9.51;92.93
43745;BME280;29359;53.048;8.732;2022-12-29T08:56:41;100058.56;;;9.54;92.65
43745;BME280;29359;53.048;8.732;2022-12-29T08:58:42;100060.25;;;9.57;92.67
43745;BME280;29359;53.048;8.732;2022-12-29T09:00:44;100059.38;;;9.56;92.90
43745;BME280;29359;53.048;8.732;2022-12-29T09:02:46;100068.88;;;9.60;92.87
43745;BME280;29359;53.048;8.732;2022-12-29T09:04:48;100067.06;;;9.62;91.08
43745;BME280;29359;53.048;8.732;2022-12-29T09:06:49;100062.59;;;9.64;90.59
43745;BME280;29359;53.048;8.732;2022-12-29T09:08:53;100050.22;;;9.66;90.57
43745;BME280;29359;53.048;8.732;2022-12-29T09:10:55;100051.03;;;9.68;91.18
43745;BME280;29359;53.048;8.732;2022-12-29T09:12:56;100070.28;;;9.70;89.87
43745;BME280;29359;53.048;8.732;2022-12-29T09:14:58;100064.03;;;9.73;90.53
43745;BME280;29359;53.048;8.732;2022-12-29T09:17:00;100075.47;;;9.72;89.31
43745;BME280;29359;53.048;8.732;2022-12-29T09:19:20;100083.38;;;9.72;89.16
43745;BME280;29359;53.048;8.732;2022-12-29T09:21:21;100088.72;;;9.70;88.76
43745;BME280;29359;53.048;8.732;2022-12-29T09:23:23;100083.44;;;9.70;88.23
43745;BME280;29359;53.048;8.732;2022-12-29T09:25:24;100073.75;;;9.71;88.22
43745;BME280;29359;53.048;8.732;2022-12-29T09:27:26;100064.13;;;9.70;88.30
43745;BME280;29359;53.048;8.732;2022-12-29T09:29:28;100072.03;;;9.70;88.74
43745;BME280;29359;53.048;8.732;2022-12-29T09:31:29;100063.28;;;9.69;88.23
43745;BME280;29359;53.048;8.732;2022-12-29T09:33:31;100071.06;;;9.72;87.82
43745;BME280;29359;53.048;8.732;2022-12-29T09:35:34;100067.41;;;9.76;87.23
43745;BME280;29359;53.048;8.732;2022-12-29T09:37:36;100073.47;;;9.79;86.81
43745;BME280;29359;53.048;8.732;2022-12-29T09:39:37;100062.88;;;9.80;86.60
43745;BME280;29359;53.048;8.732;2022-12-29T09:41:44;100069.06;;;9.79;86.94
43745;BME280;29359;53.048;8.732;2022-12-29T09:48:31;100079.50;;;9.82;86.48
43745;BME280;29359;53.048;8.732;2022-12-29T09:50:36;100079.59;;;9.79;85.87
43745;BME280;29359;53.048;8.732;2022-12-29T09:52:55;100081.50;;;9.75;86.10
43745;BME280;29359;53.048;8.732;2022-12-29T09:55:04;100083.28;;;9.75;86.99
43745;BME280;29359;53.048;8.732;2022-12-29T09:58:00;100095.66;;;9.73;86.79
43745;BME280;29359;53.048;8.732;2022-12-29T10:00:23;100081.63;;;9.72;87.19
43745;BME280;29359;53.048;8.732;2022-12-29T10:02:56;100075.38;;;9.75;87.75
43745;BME280;29359;53.048;8.732;2022-12-29T10:05:00;100075.25;;;9.78;87.69
43745;BME280;29359;53.048;8.732;2022-12-29T10:07:12;100075.13;;;9.81;86.90
43745;BME280;29359;53.048;8.732;2022-12-29T10:14:29;100062.00;;;9.80;86.11
43745;BME280;29359;53.048;8.732;2022-12-29T10:18:57;100062.94;;;9.79;83.78
43745;BME280;29359;53.048;8.732;2022-12-29T10:25:39;100072.69;;;9.76;82.77
43745;BME280;29359;53.048;8.732;2022-12-29T10:27:42;100074.56;;;9.73;82.08
43745;BME280;29359;53.048;8.732;2022-12-29T10:29:48;100074.50;;;9.74;82.16
43745;BME280;29359;53.048;8.732;2022-12-29T10:34:24;100071.53;;;9.84;83.55
43745;BME280;29359;53.048;8.732;2022-12-29T10:36:35;100074.84;;;9.89;84.08
43745;BME280;29359;53.048;8.732;2022-12-29T10:38:44;100073.13;;;9.88;84.13
43745;BME280;29359;53.048;8.732;2022-12-29T10:43:00;100088.22;;;9.84;85.47
43745;BME280;29359;53.048;8.732;2022-12-29T10:45:04;100081.28;;;9.82;85.65
43745;BME280;29359;53.048;8.732;2022-12-29T10:47:11;100072.56;;;9.80;86.20
43745;BME280;29359;53.048;8.732;2022-12-29T10:49:18;100089.88;;;9.87;86.33
43745;BME280;29359;53.048;8.732;2022-12-29T10:51:26;100085.41;;;9.89;85.94
43745;BME280;29359;53.048;8.732;2022-12-29T10:55:52;100092.44;;;9.88;86.05
43745;BME280;29359;53.048;8.732;2022-12-29T10:57:55;100083.56;;;9.91;86.91
43745;BME280;29359;53.048;8.732;2022-12-29T11:00:01;100089.63;;;9.93;87.33
43745;BME280;29359;53.048;8.732;2022-12-29T11:06:33;100085.22;;;10.17;86.83
43745;BME280;29359;53.048;8.732;2022-12-29T11:08:38;100083.53;;;10.61;87.11
43745;BME280;29359;53.048;8.732;2022-12-29T11:10:44;100077.28;;;10.85;84.16
43745;BME280;29359;53.048;8.732;2022-12-29T11:12:58;100074.63;;;10.85;82.93
43745;BME280;29359;53.048;8.732;2022-12-29T11:15:11;100077.44;;;10.81;81.80
43745;BME280;29359;53.048;8.732;2022-12-29T11:17:15;100087.84;;;10.85;81.94
43745;BME280;29359;53.048;8.732;2022-12-29T11:19:29;100074.97;;;10.76;81.28
43745;BME280;29359;53.048;8.732;2022-12-29T11:21:38;100078.00;;;10.67;80.88
43745;BME280;29359;53.048;8.732;2022-12-29T11:23:43;100068.56;;;10.61;80.33
43745;BME280;29359;53.048;8.732;2022-12-29T11:25:45;100073.09;;;10.58;80.69
43745;BME280;29359;53.048;8.732;2022-12-29T11:30:01;100068.81;;;10.55;80.89
43745;BME280;29359;53.048;8.732;2022-12-29T11:32:16;100073.16;;;10.56;80.98
43745;BME280;29359;53.048;8.732;2022-12-29T11:34:31;100066.91;;;10.59;80.87
43745;BME280;29359;53.048;8.732;2022-12-29T11:36:38;100072.19;;;10.59;80.22
43745;BME280;29359;53.048;8.732;2022-12-29T11:38:42;100055.41;;;10.60;79.66
43745;BME280;29359;53.048;8.732;2022-12-29T11:40:47;100060.63;;;10.61;79.10
43745;BME280;29359;53.048;8.732;2022-12-29T11:42:56;100064.13;;;10.62;78.69
43745;BME280;29359;53.048;8.732;2022-12-29T11:45:05;100067.75;;;10.59;78.82
43745;BME280;29359;53.048;8.732;2022-12-29T11:47:19;100076.53;;;10.60;78.24
43745;BME280;29359;53.048;8.732;2022-12-29T11:49:24;100080.03;;;10.60;78.19
43745;BME280;29359;53.048;8.732;2022-12-29T11:51:36;100073.78;;;10.63;78.89
43745;BME280;29359;53.048;8.732;2022-12-29T11:53:49;100079.91;;;10.63;77.80